Time;durP1;ratioP1;P1;durP2;ratioP2;P2;SDS_P1;SDS_P2;PMS_P1;PMS_P2;Temp;Humidity;BMP_temperature;BMP_pressure;BME280_temperature;BME280_humidity;BME280_pressure;Samples;Min_cycle;Max_cycle;Signal;HPM_P1;HPM_P2
2021/12/28 00:00:08;;;;;;;5.57;2.40;;;;;;;;;;5088864;28;20052;-73
2021/12/28 00:02:34;;;;;;;4.18;2.33;;;;;;;;;;5089050;28;20040;-74
2021/12/28 00:05:00;;;;;;;4.90;2.40;;;;;;;;;;5089662;28;20051;-73
2021/12/28 00:07:26;;;;;;;3.58;2.20;;;;;;;;;;5088852;28;20052;-73
2021/12/28 00:09:52;;;;;;;7.15;2.85;;;;;;;;;;5089454;28;20040;-73
2021/12/28 00:12:18;;;;;;;7.15;2.38;;;;;;;;;;5089454;28;20606;-74
2021/12/28 00:15:01;;;;;;;4.10;2.03;;;;;;;;;;5088272;28;20044;-74
2021/12/28 00:20:12;;;;;;;3.47;2.15;;;;;;;;;;5089555;28;20422;-74
2021/12/28 00:22:38;;;;;;;4.47;2.35;;;;;;;;;;5089272;28;20094;-74
2021/12/28 00:25:05;;;;;;;4.53;2.03;;;;;;;;;;5089319;28;20070;-74
2021/12/28 00:27:31;;;;;;;4.68;2.08;;;;;;;;;;5088969;28;20085;-75
2021/12/28 00:29:57;;;;;;;5.97;2.13;;;;;;;;;;5089479;28;20112;-75
2021/12/28 00:32:24;;;;;;;6.22;1.90;;;;;;;;;;5071571;28;20520;-75
2021/12/28 00:34:50;;;;;;;4.70;2.10;;;;;;;;;;5087741;28;20048;-76
2021/12/28 00:37:16;;;;;;;2.80;2.00;;;;;;;;;;5087443;28;20051;-74
2021/12/28 00:39:42;;;;;;;5.53;2.15;;;;;;;;;;5088505;28;20044;-75
2021/12/28 00:42:09;;;;;;;4.25;2.10;;;;;;;;;;5086982;28;20080;-73
2021/12/28 00:44:35;;;;;;;4.63;2.20;;;;;;;;;;5088843;28;20044;-74
2021/12/28 00:47:01;;;;;;;4.95;2.17;;;;;;;;;;5088849;28;20056;-73
2021/12/28 00:49:27;;;;;;;3.75;1.60;;;;;;;;;;5088656;28;20048;-73
2021/12/28 00:51:55;;;;;;;4.53;2.10;;;;;;;;;;5087154;28;20052;-73
2021/12/28 00:54:21;;;;;;;4.03;2.40;;;;;;;;;;5087070;28;20052;-73
2021/12/28 00:56:47;;;;;;;3.40;1.80;;;;;;;;;;5089200;28;20052;-73
2021/12/28 00:59:13;;;;;;;4.28;2.10;;;;;;;;;;5087526;28;20048;-73
2021/12/28 01:01:39;;;;;;;3.70;1.85;;;;;;;;;;5087796;28;20040;-74
2021/12/28 01:04:05;;;;;;;4.35;2.10;;;;;;;;;;5089202;28;20413;-73
2021/12/28 01:06:31;;;;;;;3.63;2.30;;;;;;;;;;5087762;28;20411;-73
2021/12/28 01:08:57;;;;;;;7.00;1.90;;;;;;;;;;5070554;28;20107;-74
2021/12/28 01:11:23;;;;;;;3.65;1.90;;;;;;;;;;5088660;28;20138;-74
2021/12/28 01:13:49;;;;;;;3.50;1.70;;;;;;;;;;5089577;28;20109;-74
2021/12/28 01:16:16;;;;;;;2.92;1.88;;;;;;;;;;5092361;28;20493;-74
2021/12/28 01:18:42;;;;;;;3.80;2.13;;;;;;;;;;5091758;28;20457;-74
2021/12/28 01:21:08;;;;;;;4.90;2.10;;;;;;;;;;5091944;28;20406;-74
2021/12/28 01:23:35;;;;;;;4.70;1.65;;;;;;;;;;5092940;28;20075;-74
2021/12/28 01:26:01;;;;;;;5.70;2.15;;;;;;;;;;5092791;28;20052;-73
2021/12/28 01:28:28;;;;;;;3.60;1.75;;;;;;;;;;5092211;28;20076;-74
2021/12/28 01:30:54;;;;;;;4.00;2.10;;;;;;;;;;5091306;28;20047;-73
2021/12/28 01:33:20;;;;;;;3.58;1.60;;;;;;;;;;5092537;28;20602;-75
2021/12/28 01:35:46;;;;;;;4.70;1.80;;;;;;;;;;5091148;28;20168;-75
2021/12/28 01:38:12;;;;;;;2.78;1.80;;;;;;;;;;5092470;28;20069;-74
2021/12/28 01:40:40;;;;;;;3.55;1.80;;;;;;;;;;5092207;28;20135;-74
2021/12/28 01:43:07;;;;;;;2.92;1.80;;;;;;;;;;5091762;28;20182;-74
2021/12/28 01:45:44;;;;;;;3.20;1.70;;;;;;;;;;5091852;28;20101;-74
2021/12/28 01:48:11;;;;;;;4.80;1.75;;;;;;;;;;5091744;28;20916;-73
2021/12/28 01:50:38;;;;;;;2.83;1.50;;;;;;;;;;5073420;28;20180;-72
2021/12/28 01:53:05;;;;;;;3.50;1.88;;;;;;;;;;5091659;28;20418;-73
2021/12/28 01:55:31;;;;;;;3.05;1.67;;;;;;;;;;5091071;28;20083;-73
2021/12/28 01:57:57;;;;;;;2.85;1.70;;;;;;;;;;5091712;28;20051;-73
2021/12/28 02:00:25;;;;;;;3.15;2.00;;;;;;;;;;5073095;28;20134;-72
2021/12/28 02:02:52;;;;;;;3.08;1.90;;;;;;;;;;5091209;28;20063;-73
2021/12/28 02:05:18;;;;;;;2.97;1.70;;;;;;;;;;5091279;28;20036;-73
2021/12/28 02:07:44;;;;;;;4.72;1.90;;;;;;;;;;5091539;28;20455;-73
2021/12/28 02:10:10;;;;;;;3.10;1.85;;;;;;;;;;5073541;28;20040;-73
2021/12/28 02:12:37;;;;;;;3.35;1.90;;;;;;;;;;5091741;28;20063;-75
2021/12/28 02:15:07;;;;;;;2.72;1.77;;;;;;;;;;5091894;28;20097;-74
2021/12/28 02:17:34;;;;;;;2.50;1.55;;;;;;;;;;5091407;28;20059;-76
2021/12/28 02:20:14;;;;;;;2.50;1.50;;;;;;;;;;5090668;28;20044;-75
2021/12/28 02:22:41;;;;;;;2.92;1.70;;;;;;;;;;5091830;28;20559;-76
2021/12/28 02:25:07;;;;;;;2.28;1.52;;;;;;;;;;5090177;28;20516;-76
2021/12/28 02:27:34;;;;;;;3.97;1.70;;;;;;;;;;5090031;28;20043;-75
2021/12/28 02:30:01;;;;;;;3.33;1.65;;;;;;;;;;5090038;28;20058;-76
2021/12/28 02:32:28;;;;;;;2.53;1.50;;;;;;;;;;5091391;28;20518;-75
2021/12/28 02:34:54;;;;;;;2.15;1.35;;;;;;;;;;5073045;28;20076;-75
2021/12/28 02:37:21;;;;;;;5.15;1.70;;;;;;;;;;5090148;28;20047;-75
2021/12/28 02:39:47;;;;;;;3.30;1.75;;;;;;;;;;5091055;28;20502;-73
2021/12/28 02:42:15;;;;;;;2.88;1.67;;;;;;;;;;5091379;28;20067;-74
2021/12/28 02:44:41;;;;;;;3.20;1.73;;;;;;;;;;5089977;28;20462;-73
2021/12/28 02:47:07;;;;;;;2.85;1.60;;;;;;;;;;5089789;28;20440;-73
2021/12/28 02:49:33;;;;;;;2.60;1.60;;;;;;;;;;5090145;28;20539;-71
2021/12/28 02:51:59;;;;;;;5.82;2.25;;;;;;;;;;5089690;28;20048;-71
2021/12/28 02:54:25;;;;;;;5.13;1.70;;;;;;;;;;5091057;28;20078;-72
2021/12/28 02:56:51;;;;;;;5.40;1.63;;;;;;;;;;5089436;28;20101;-72
2021/12/28 02:59:17;;;;;;;4.15;1.90;;;;;;;;;;5089659;28;20055;-73
2021/12/28 03:01:43;;;;;;;5.32;1.77;;;;;;;;;;5090683;28;20126;-73
2021/12/28 03:04:09;;;;;;;5.15;1.75;;;;;;;;;;5072691;28;20098;-75
2021/12/28 03:06:36;;;;;;;3.88;1.70;;;;;;;;;;5090534;28;20135;-75
2021/12/28 03:09:03;;;;;;;3.80;1.63;;;;;;;;;;5090218;28;20109;-74
2021/12/28 03:11:30;;;;;;;2.60;1.38;;;;;;;;;;5089568;28;20088;-75
2021/12/28 03:13:57;;;;;;;3.83;1.77;;;;;;;;;;5089889;28;20052;-75
2021/12/28 03:16:24;;;;;;;3.33;1.70;;;;;;;;;;5088601;28;20051;-75
2021/12/28 03:18:50;;;;;;;4.15;1.60;;;;;;;;;;5089567;28;20040;-75
2021/12/28 03:21:17;;;;;;;3.42;1.60;;;;;;;;;;5089901;28;20108;-73
2021/12/28 03:23:44;;;;;;;4.80;1.70;;;;;;;;;;5089240;28;20047;-73
2021/12/28 03:26:11;;;;;;;4.90;2.13;;;;;;;;;;5089555;28;20089;-74
2021/12/28 03:28:39;;;;;;;4.28;1.70;;;;;;;;;;5089867;28;20044;-74
2021/12/28 03:31:06;;;;;;;2.88;1.80;;;;;;;;;;5089840;28;20056;-73
2021/12/28 03:33:33;;;;;;;3.08;1.42;;;;;;;;;;5088103;28;20041;-74
2021/12/28 03:36:00;;;;;;;2.05;1.30;;;;;;;;;;5087981;28;20048;-74
2021/12/28 03:38:26;;;;;;;4.60;1.65;;;;;;;;;;5088858;28;20483;-74
2021/12/28 03:40:53;;;;;;;2.67;1.55;;;;;;;;;;5089195;28;20044;-74
2021/12/28 03:43:20;;;;;;;3.08;1.65;;;;;;;;;;5088287;28;20135;-74
2021/12/28 03:45:46;;;;;;;3.10;1.70;;;;;;;;;;5088466;28;20044;-74
2021/12/28 03:48:13;;;;;;;2.20;1.30;;;;;;;;;;5089461;28;20044;-74
2021/12/28 03:50:39;;;;;;;3.40;1.70;;;;;;;;;;5088603;28;20159;-74
2021/12/28 03:53:05;;;;;;;2.25;1.55;;;;;;;;;;5089289;28;20527;-74
2021/12/28 03:55:32;;;;;;;4.13;1.48;;;;;;;;;;5089177;28;20079;-73
2021/12/28 03:58:00;;;;;;;2.42;1.35;;;;;;;;;;5088725;28;20048;-75
2021/12/28 04:00:26;;;;;;;3.65;1.60;;;;;;;;;;5087777;28;20055;-74
2021/12/28 04:02:52;;;;;;;1.77;1.27;;;;;;;;;;5071593;28;20051;-75
2021/12/28 04:05:19;;;;;;;3.05;1.70;;;;;;;;;;5089387;28;20046;-74
2021/12/28 04:07:45;;;;;;;3.00;1.48;;;;;;;;;;5088301;28;20052;-75
2021/12/28 04:10:12;;;;;;;2.63;1.88;;;;;;;;;;5089116;28;20417;-75
2021/12/28 04:12:40;;;;;;;2.70;1.58;;;;;;;;;;5087779;28;20134;-74
2021/12/28 04:15:07;;;;;;;2.50;1.30;;;;;;;;;;5088351;28;20426;-74
2021/12/28 04:17:37;;;;;;;3.83;1.58;;;;;;;;;;5088863;28;20077;-74
2021/12/28 04:20:05;;;;;;;2.22;1.40;;;;;;;;;;5088785;28;20093;-74
2021/12/28 04:22:31;;;;;;;2.33;1.58;;;;;;;;;;5089145;28;20078;-74
2021/12/28 04:24:57;;;;;;;4.68;1.85;;;;;;;;;;5087288;28;20512;-74
2021/12/28 04:27:23;;;;;;;2.42;1.40;;;;;;;;;;5070383;28;20052;-74
2021/12/28 04:29:49;;;;;;;3.78;1.50;;;;;;;;;;5088548;28;20090;-75
2021/12/28 04:32:15;;;;;;;2.53;1.70;;;;;;;;;;5088583;28;20043;-73
2021/12/28 04:34:41;;;;;;;9.68;1.50;;;;;;;;;;5087810;28;20446;-73
2021/12/28 04:37:07;;;;;;;3.53;1.70;;;;;;;;;;5088846;28;20052;-73
2021/12/28 04:39:33;;;;;;;5.25;1.88;;;;;;;;;;5088735;28;20044;-74
2021/12/28 04:41:59;;;;;;;5.93;1.92;;;;;;;;;;5088629;28;20059;-74
2021/12/28 04:44:25;;;;;;;16.77;2.55;;;;;;;;;;5088257;28;20101;-73
2021/12/28 04:46:55;;;;;;;6.45;1.60;;;;;;;;;;5086715;28;20052;-74
2021/12/28 04:49:23;;;;;;;10.57;2.67;;;;;;;;;;5090536;28;20094;-73
2021/12/28 04:51:50;;;;;;;5.87;1.73;;;;;;;;;;5092481;28;20128;-73
2021/12/28 04:54:16;;;;;;;3.10;1.45;;;;;;;;;;5092714;28;20559;-73
2021/12/28 04:56:42;;;;;;;3.65;1.65;;;;;;;;;;5092225;28;20036;-74
2021/12/28 04:59:08;;;;;;;7.95;1.73;;;;;;;;;;5091516;28;20072;-75
2021/12/28 05:01:36;;;;;;;8.70;1.73;;;;;;;;;;5091234;28;20616;-75
2021/12/28 05:04:03;;;;;;;6.40;1.95;;;;;;;;;;5091255;28;20101;-74
2021/12/28 05:06:29;;;;;;;2.92;1.80;;;;;;;;;;5092429;28;20055;-74
2021/12/28 05:08:55;;;;;;;3.20;1.58;;;;;;;;;;5090550;28;20048;-75
2021/12/28 05:11:21;;;;;;;4.85;1.67;;;;;;;;;;5074024;28;20048;-75
2021/12/28 05:13:48;;;;;;;3.60;1.70;;;;;;;;;;5092164;28;20051;-73
2021/12/28 05:16:15;;;;;;;3.85;1.50;;;;;;;;;;5092203;28;20052;-73
2021/12/28 05:18:41;;;;;;;3.40;1.70;;;;;;;;;;5091343;28;20048;-74
2021/12/28 05:21:07;;;;;;;3.42;2.05;;;;;;;;;;5091057;28;20055;-74
2021/12/28 05:23:34;;;;;;;3.22;1.58;;;;;;;;;;5090896;28;20508;-75
2021/12/28 05:26:00;;;;;;;15.93;2.42;;;;;;;;;;5090706;28;20059;-75
2021/12/28 05:28:26;;;;;;;2.60;1.45;;;;;;;;;;5092435;28;20130;-75
2021/12/28 05:30:52;;;;;;;5.78;1.55;;;;;;;;;;5091478;28;20101;-74
2021/12/28 05:33:18;;;;;;;4.88;1.77;;;;;;;;;;5090347;28;20166;-75
2021/12/28 05:35:44;;;;;;;6.22;1.75;;;;;;;;;;5090397;28;20048;-75
2021/12/28 05:38:12;;;;;;;2.25;1.45;;;;;;;;;;5092130;28;20040;-75
2021/12/28 05:40:39;;;;;;;6.50;1.67;;;;;;;;;;5091727;28;20422;-75
2021/12/28 05:43:05;;;;;;;3.33;2.45;;;;;;;;;;5091576;28;20051;-75
2021/12/28 05:45:33;;;;;;;3.50;1.30;;;;;;;;;;5090623;28;20044;-75
2021/12/28 05:47:59;;;;;;;2.30;1.40;;;;;;;;;;5091665;28;20485;-75
2021/12/28 05:50:25;;;;;;;3.47;1.83;;;;;;;;;;5091656;28;20036;-73
2021/12/28 05:52:51;;;;;;;16.42;2.30;;;;;;;;;;5091550;28;20044;-74
2021/12/28 05:55:17;;;;;;;3.47;1.77;;;;;;;;;;5091615;28;20044;-73
2021/12/28 05:57:43;;;;;;;5.45;1.45;;;;;;;;;;5090588;28;20048;-74
2021/12/28 06:00:10;;;;;;;5.53;1.60;;;;;;;;;;5089613;28;20044;-74
2021/12/28 06:02:37;;;;;;;3.22;1.77;;;;;;;;;;5091980;28;20080;-74
2021/12/28 06:05:04;;;;;;;4.68;1.80;;;;;;;;;;5092015;28;20051;-75
2021/12/28 06:07:30;;;;;;;5.85;1.80;;;;;;;;;;5090672;28;20051;-74
2021/12/28 06:09:56;;;;;;;4.32;1.75;;;;;;;;;;5090379;28;20109;-74
2021/12/28 06:12:23;;;;;;;6.32;2.58;;;;;;;;;;5091406;28;20055;-74
2021/12/28 06:14:49;;;;;;;3.08;1.52;;;;;;;;;;5090550;28;20066;-74
2021/12/28 06:17:15;;;;;;;3.42;1.65;;;;;;;;;;5090442;28;20047;-75
2021/12/28 06:19:41;;;;;;;2.83;1.77;;;;;;;;;;5091777;28;20437;-73
2021/12/28 06:22:08;;;;;;;2.28;1.58;;;;;;;;;;5073749;28;20403;-73
2021/12/28 06:24:34;;;;;;;3.22;1.50;;;;;;;;;;5089776;28;20051;-73
2021/12/28 06:27:00;;;;;;;4.30;1.60;;;;;;;;;;5091228;28;20059;-74
2021/12/28 06:29:26;;;;;;;5.43;2.33;;;;;;;;;;5090933;28;20255;-74
2021/12/28 06:31:52;;;;;;;3.88;2.10;;;;;;;;;;5086454;28;20051;-74
2021/12/28 06:34:18;;;;;;;6.78;1.60;;;;;;;;;;5090531;28;20051;-74
2021/12/28 06:36:44;;;;;;;3.55;1.75;;;;;;;;;;5091086;28;20433;-74
2021/12/28 06:39:11;;;;;;;3.88;1.80;;;;;;;;;;5090782;28;20044;-75
2021/12/28 06:41:38;;;;;;;3.08;1.73;;;;;;;;;;5091401;28;20044;-75
2021/12/28 06:44:05;;;;;;;3.15;1.73;;;;;;;;;;5091248;28;20044;-77
2021/12/28 06:46:32;;;;;;;4.32;1.77;;;;;;;;;;5090648;28;20044;-74
2021/12/28 06:48:58;;;;;;;9.20;2.38;;;;;;;;;;5090105;28;20052;-74
2021/12/28 06:51:24;;;;;;;3.97;1.50;;;;;;;;;;5091035;28;20047;-75
2021/12/28 06:53:50;;;;;;;2.38;1.40;;;;;;;;;;5091129;28;20477;-75
2021/12/28 06:56:16;;;;;;;4.47;1.95;;;;;;;;;;5091160;28;20047;-74
2021/12/28 06:58:42;;;;;;;4.78;1.77;;;;;;;;;;5089138;28;20043;-75
2021/12/28 07:01:09;;;;;;;3.47;2.20;;;;;;;;;;5090083;28;20134;-74
2021/12/28 07:03:35;;;;;;;4.40;1.75;;;;;;;;;;5091031;28;20048;-74
2021/12/28 07:06:02;;;;;;;4.35;1.60;;;;;;;;;;5090200;28;20059;-74
2021/12/28 07:08:28;;;;;;;4.30;1.67;;;;;;;;;;5090229;28;20134;-74
2021/12/28 07:10:54;;;;;;;2.97;1.85;;;;;;;;;;5090001;28;20078;-74
2021/12/28 07:13:21;;;;;;;3.67;1.83;;;;;;;;;;5090780;28;20464;-74
2021/12/28 07:15:47;;;;;;;4.20;1.77;;;;;;;;;;5090176;28;20059;-72
2021/12/28 07:18:13;;;;;;;3.22;1.63;;;;;;;;;;5090648;28;20044;-72
2021/12/28 07:20:39;;;;;;;3.20;1.73;;;;;;;;;;5090408;28;20051;-72
2021/12/28 07:23:05;;;;;;;3.45;1.80;;;;;;;;;;5089373;28;20135;-72
2021/12/28 07:25:31;;;;;;;3.53;1.98;;;;;;;;;;5090232;28;20123;-71
2021/12/28 07:27:57;;;;;;;6.13;1.92;;;;;;;;;;5090272;28;20055;-71
2021/12/28 07:30:24;;;;;;;2.75;1.85;;;;;;;;;;5090107;28;20044;-72
2021/12/28 07:32:50;;;;;;;3.33;1.90;;;;;;;;;;5089866;28;20048;-71
2021/12/28 07:35:16;;;;;;;5.60;1.73;;;;;;;;;;5090372;28;20058;-72
2021/12/28 07:37:42;;;;;;;2.78;1.92;;;;;;;;;;5089990;28;20047;-72
2021/12/28 07:40:08;;;;;;;3.35;1.95;;;;;;;;;;5090167;28;20048;-72
2021/12/28 07:42:35;;;;;;;2.83;1.80;;;;;;;;;;5089522;28;20418;-71
2021/12/28 07:45:02;;;;;;;4.13;2.17;;;;;;;;;;5090270;28;20051;-72
2021/12/28 07:47:28;;;;;;;2.63;1.48;;;;;;;;;;5090185;28;20059;-72
2021/12/28 07:49:54;;;;;;;2.28;1.73;;;;;;;;;;5089816;28;20497;-72
2021/12/28 07:52:20;;;;;;;7.78;1.90;;;;;;;;;;5089940;28;20180;-72
2021/12/28 07:54:46;;;;;;;8.50;1.90;;;;;;;;;;5089285;28;20216;-72
2021/12/28 07:57:12;;;;;;;3.00;1.52;;;;;;;;;;5089932;28;20051;-71
2021/12/28 07:59:38;;;;;;;5.47;1.90;;;;;;;;;;5071489;28;20561;-76
2021/12/28 08:02:04;;;;;;;5.97;2.20;;;;;;;;;;5090068;28;20051;-73
2021/12/28 08:04:30;;;;;;;4.22;1.70;;;;;;;;;;5088559;28;20389;-72
2021/12/28 08:06:57;;;;;;;5.85;2.20;;;;;;;;;;5088362;28;20516;-73
2021/12/28 08:09:23;;;;;;;3.60;1.98;;;;;;;;;;5087577;28;20535;-72
2021/12/28 08:11:49;;;;;;;5.93;2.65;;;;;;;;;;5088718;28;20060;-72
2021/12/28 08:14:15;;;;;;;4.70;2.08;;;;;;;;;;5088759;28;20056;-72
2021/12/28 08:16:42;;;;;;;6.80;2.00;;;;;;;;;;5089041;28;20054;-73
2021/12/28 08:19:08;;;;;;;5.47;2.00;;;;;;;;;;5089100;28;20044;-73
2021/12/28 08:21:34;;;;;;;3.65;1.90;;;;;;;;;;5086869;28;20036;-72
2021/12/28 08:24:01;;;;;;;4.78;1.80;;;;;;;;;;5087933;28;20040;-72
2021/12/28 08:26:27;;;;;;;6.10;1.90;;;;;;;;;;5088778;28;20079;-73
2021/12/28 08:28:53;;;;;;;3.67;2.03;;;;;;;;;;5089025;28;20063;-72
2021/12/28 08:31:19;;;;;;;3.95;1.98;;;;;;;;;;5088895;28;20086;-72
2021/12/28 08:33:45;;;;;;;3.22;1.90;;;;;;;;;;5088350;28;20044;-73
2021/12/28 08:36:11;;;;;;;5.05;1.95;;;;;;;;;;5089188;28;20044;-73
2021/12/28 08:38:39;;;;;;;3.65;2.10;;;;;;;;;;5088736;28;20425;-73
2021/12/28 08:41:07;;;;;;;3.20;1.88;;;;;;;;;;5087438;28;20055;-73
2021/12/28 08:43:33;;;;;;;3.75;1.98;;;;;;;;;;5088811;28;20041;-72
2021/12/28 08:46:00;;;;;;;6.00;2.00;;;;;;;;;;5087151;28;20044;-73
2021/12/28 08:48:26;;;;;;;4.45;2.40;;;;;;;;;;5088653;28;20126;-73
2021/12/28 08:50:52;;;;;;;5.13;2.20;;;;;;;;;;5088553;28;20051;-73
2021/12/28 08:53:19;;;;;;;4.38;2.00;;;;;;;;;;5088796;28;20044;-72
2021/12/28 08:55:46;;;;;;;8.15;2.40;;;;;;;;;;5088599;28;20475;-72
2021/12/28 08:58:13;;;;;;;4.38;2.00;;;;;;;;;;5088204;28;20093;-73
2021/12/28 09:00:39;;;;;;;2.90;1.80;;;;;;;;;;5088624;28;20083;-72
2021/12/28 09:03:06;;;;;;;5.82;2.70;;;;;;;;;;5088230;28;20048;-72
2021/12/28 09:05:33;;;;;;;3.28;1.90;;;;;;;;;;5088364;28;20471;-72
2021/12/28 09:08:00;;;;;;;4.45;2.47;;;;;;;;;;5089047;28;20067;-72
2021/12/28 09:10:27;;;;;;;4.72;2.13;;;;;;;;;;5089559;28;20055;-73
2021/12/28 09:12:53;;;;;;;4.88;2.17;;;;;;;;;;5087307;28;20060;-72
2021/12/28 09:15:20;;;;;;;3.50;1.83;;;;;;;;;;5088290;28;20052;-73
2021/12/28 09:17:46;;;;;;;5.00;2.40;;;;;;;;;;5087735;28;20066;-72
2021/12/28 09:20:13;;;;;;;4.18;2.50;;;;;;;;;;5089209;28;20086;-73
2021/12/28 09:22:40;;;;;;;4.03;2.38;;;;;;;;;;5088381;28;20387;-72
2021/12/28 09:25:10;;;;;;;4.93;2.15;;;;;;;;;;5088964;28;20060;-72
2021/12/28 09:27:38;;;;;;;3.80;2.00;;;;;;;;;;5087116;28;20047;-73
2021/12/28 09:30:04;;;;;;;4.22;1.77;;;;;;;;;;5088586;28;20055;-73
2021/12/28 09:32:30;;;;;;;3.88;1.95;;;;;;;;;;5087772;28;20044;-73
2021/12/28 09:34:56;;;;;;;4.50;2.20;;;;;;;;;;5089810;28;20036;-73
2021/12/28 09:37:22;;;;;;;4.93;2.10;;;;;;;;;;5092486;28;20044;-74
2021/12/28 09:39:48;;;;;;;4.15;2.03;;;;;;;;;;5090752;28;20036;-73
2021/12/28 09:42:15;;;;;;;4.28;2.30;;;;;;;;;;5090939;28;20472;-72
2021/12/28 09:44:42;;;;;;;3.35;2.03;;;;;;;;;;5090444;28;20131;-71
2021/12/28 09:47:08;;;;;;;3.47;1.98;;;;;;;;;;5088882;28;20044;-71
2021/12/28 09:49:34;;;;;;;4.50;2.20;;;;;;;;;;5090730;28;20040;-72
2021/12/28 09:52:02;;;;;;;4.82;2.20;;;;;;;;;;5091082;28;20135;-71
2021/12/28 09:54:29;;;;;;;4.55;2.60;;;;;;;;;;5090316;28;20074;-72
2021/12/28 09:56:56;;;;;;;5.68;2.33;;;;;;;;;;5089792;28;20444;-71
2021/12/28 09:59:22;;;;;;;4.93;2.17;;;;;;;;;;5089818;28;20140;-71
2021/12/28 10:01:49;;;;;;;4.18;2.00;;;;;;;;;;5090381;28;20040;-72
2021/12/28 10:04:16;;;;;;;4.15;2.30;;;;;;;;;;5090194;28;20576;-72
2021/12/28 10:06:43;;;;;;;4.45;2.30;;;;;;;;;;5089288;28;20097;-72
2021/12/28 10:09:09;;;;;;;4.65;2.20;;;;;;;;;;5089569;28;20105;-73
2021/12/28 10:11:36;;;;;;;6.22;2.13;;;;;;;;;;5089200;28;20051;-73
2021/12/28 10:14:12;;;;;;;5.18;2.30;;;;;;;;;;5088184;28;20051;-72
2021/12/28 10:16:43;;;;;;;5.20;2.08;;;;;;;;;;5088661;28;20392;-72
2021/12/28 10:19:28;;;;;;;4.32;2.13;;;;;;;;;;5088489;28;20090;-72
2021/12/28 10:21:54;;;;;;;5.03;2.40;;;;;;;;;;5090561;28;20044;-71
2021/12/28 10:24:35;;;;;;;4.15;2.00;;;;;;;;;;5090103;28;20051;-72
2021/12/28 10:27:17;;;;;;;4.13;2.17;;;;;;;;;;5087627;28;20127;-72
2021/12/28 10:29:43;;;;;;;3.33;1.80;;;;;;;;;;5088884;28;20040;-72
2021/12/28 10:32:23;;;;;;;3.80;2.08;;;;;;;;;;5089750;28;20051;-72
2021/12/28 10:34:51;;;;;;;5.05;2.28;;;;;;;;;;5088994;28;20051;-72
2021/12/28 10:37:22;;;;;;;5.40;2.20;;;;;;;;;;5089056;28;20055;-72
2021/12/28 10:39:51;;;;;;;4.05;1.92;;;;;;;;;;5088205;28;20555;-72
2021/12/28 10:42:36;;;;;;;4.05;2.15;;;;;;;;;;5089494;28;20044;-72
2021/12/28 10:45:04;;;;;;;3.70;2.10;;;;;;;;;;5089040;28;20130;-73
2021/12/28 10:47:30;;;;;;;4.78;2.33;;;;;;;;;;5087687;28;20101;-72
2021/12/28 10:49:59;;;;;;;4.03;1.90;;;;;;;;;;5087076;28;20036;-72
2021/12/28 10:52:29;;;;;;;4.63;2.13;;;;;;;;;;5088164;28;20044;-72
2021/12/28 10:55:14;;;;;;;3.95;1.92;;;;;;;;;;5087179;28;20044;-72
2021/12/28 10:57:41;;;;;;;3.65;1.98;;;;;;;;;;5084662;28;20428;-72
2021/12/28 11:00:28;;;;;;;5.03;2.20;;;;;;;;;;5074834;28;20040;-73
2021/12/28 11:03:16;;;;;;;4.07;2.00;;;;;;;;;;5088778;28;20051;-72
2021/12/28 11:05:43;;;;;;;4.18;2.20;;;;;;;;;;5089186;28;20068;-73
2021/12/28 11:08:09;;;;;;;5.25;2.30;;;;;;;;;;5089197;28;20052;-72
2021/12/28 11:10:36;;;;;;;3.67;2.10;;;;;;;;;;5087840;28;20040;-72
2021/12/28 11:13:03;;;;;;;5.32;2.17;;;;;;;;;;5089454;28;20044;-72
2021/12/28 11:15:36;;;;;;;4.90;1.60;;;;;;;;;;5088586;28;20036;-73
2021/12/28 11:18:16;;;;;;;3.03;1.55;;;;;;;;;;5087915;28;20036;-73
2021/12/28 11:20:42;;;;;;;;;;;;;;;;;;5087556;28;20051;-72
2021/12/28 11:23:12;;;;;;;5.80;1.80;;;;;;;;;;5089333;28;19920;-73
2021/12/28 11:25:38;;;;;;;7.50;2.00;;;;;;;;;;5088663;28;20044;-73
2021/12/28 11:28:17;;;;;;;3.70;1.65;;;;;;;;;;5087768;28;20060;-73
2021/12/28 11:31:02;;;;;;;4.07;1.70;;;;;;;;;;5087681;28;20043;-73
2021/12/28 11:33:41;;;;;;;5.07;1.90;;;;;;;;;;5085364;28;20079;-73
2021/12/28 11:36:07;;;;;;;3.53;1.70;;;;;;;;;;5087545;28;20047;-73
2021/12/28 11:38:34;;;;;;;4.60;1.60;;;;;;;;;;5088389;28;20036;-73
2021/12/28 11:41:00;;;;;;;6.72;1.80;;;;;;;;;;5088263;28;20052;-73
2021/12/28 11:43:26;;;;;;;3.75;1.40;;;;;;;;;;5088477;28;20047;-73
2021/12/28 11:45:53;;;;;;;4.72;1.70;;;;;;;;;;5084503;28;20123;-72
2021/12/28 11:48:19;;;;;;;3.67;1.50;;;;;;;;;;5085928;28;20107;-73
2021/12/28 11:50:45;;;;;;;3.50;1.60;;;;;;;;;;5071044;28;20048;-73
2021/12/28 11:53:14;;;;;;;4.32;1.73;;;;;;;;;;5087168;28;20036;-73
2021/12/28 11:55:41;;;;;;;3.07;1.43;;;;;;;;;;5087652;28;20052;-73
2021/12/28 11:58:08;;;;;;;3.50;1.40;;;;;;;;;;5086571;28;20295;-73
2021/12/28 12:00:39;;;;;;;4.97;1.77;;;;;;;;;;5081013;28;20047;-73
2021/12/28 12:03:06;;;;;;;4.55;1.70;;;;;;;;;;5087909;28;20474;-73
2021/12/28 12:05:34;;;;;;;3.38;1.40;;;;;;;;;;5087849;28;20055;-73
2021/12/28 12:08:11;;;;;;;5.40;1.30;;;;;;;;;;5086811;28;20090;-73
2021/12/28 12:10:38;;;;;;;3.88;1.58;;;;;;;;;;5086841;28;20044;-74
2021/12/28 12:13:06;;;;;;;4.00;1.50;;;;;;;;;;5086859;28;20478;-73
2021/12/28 12:15:37;;;;;;;3.45;1.40;;;;;;;;;;5087394;28;20040;-73
2021/12/28 12:18:04;;;;;;;3.20;1.60;;;;;;;;;;5086453;28;20170;-72
2021/12/28 12:20:36;;;;;;;4.03;1.55;;;;;;;;;;5086749;28;20064;-73
2021/12/28 12:23:06;;;;;;;2.53;1.33;;;;;;;;;;5087577;28;20121;-73
2021/12/28 12:25:45;;;;;;;3.45;1.67;;;;;;;;;;5085657;28;20059;-73
2021/12/28 12:28:12;;;;;;;2.83;1.40;;;;;;;;;;5087404;28;20051;-73
2021/12/28 12:30:38;;;;;;;2.88;1.30;;;;;;;;;;5086007;28;20048;-73
2021/12/28 12:33:11;;;;;;;3.00;1.30;;;;;;;;;;5087107;28;20044;-73
2021/12/28 12:35:56;;;;;;;2.97;1.48;;;;;;;;;;5085579;28;20040;-73
2021/12/28 12:38:26;;;;;;;4.47;1.80;;;;;;;;;;5085542;28;20048;-72
2021/12/28 12:40:55;;;;;;;2.90;1.10;;;;;;;;;;5085192;28;20557;-73
2021/12/28 12:43:22;;;;;;;2.83;1.20;;;;;;;;;;5087095;28;20044;-72
2021/12/28 12:45:51;;;;;;;4.28;1.65;;;;;;;;;;5087868;28;20040;-73
2021/12/28 12:48:30;;;;;;;3.30;1.50;;;;;;;;;;5087865;28;20081;-72
2021/12/28 12:51:16;;;;;;;2.22;1.20;;;;;;;;;;5086613;28;20113;-73
2021/12/28 12:54:02;;;;;;;3.58;1.38;;;;;;;;;;5086424;28;20044;-72
2021/12/28 12:56:39;;;;;;;2.78;1.25;;;;;;;;;;5081734;28;20063;-73
2021/12/28 12:59:14;;;;;;;3.33;1.25;;;;;;;;;;5085568;28;20044;-73
2021/12/28 13:01:40;;;;;;;1.88;1.00;;;;;;;;;;5077284;28;20048;-72
2021/12/28 13:04:25;;;;;;;3.55;1.10;;;;;;;;;;5085546;28;20044;-72
2021/12/28 13:06:57;;;;;;;3.85;1.27;;;;;;;;;;5084643;28;20063;-72
2021/12/28 13:09:23;;;;;;;3.25;1.65;;;;;;;;;;5087439;28;20413;-72
2021/12/28 13:11:49;;;;;;;5.32;1.40;;;;;;;;;;5090828;28;20510;-72
2021/12/28 13:14:16;;;;;;;4.05;1.10;;;;;;;;;;5090888;28;20071;-72
2021/12/28 13:16:42;;;;;;;3.20;1.15;;;;;;;;;;5089228;28;20051;-72
2021/12/28 13:19:08;;;;;;;5.43;1.45;;;;;;;;;;5091684;28;20142;-72
2021/12/28 13:21:35;;;;;;;4.00;1.25;;;;;;;;;;5092025;28;20131;-72
2021/12/28 13:24:12;;;;;;;2.95;1.10;;;;;;;;;;5091572;28;20062;-72
2021/12/28 13:26:45;;;;;;;3.63;1.20;;;;;;;;;;5090889;28;20087;-72
2021/12/28 13:29:11;;;;;;;2.20;1.20;;;;;;;;;;5090700;28;20222;-72
2021/12/28 13:31:37;;;;;;;2.90;1.15;;;;;;;;;;5092174;28;20041;-72
2021/12/28 13:34:03;;;;;;;2.75;1.23;;;;;;;;;;5089865;28;20126;-73
2021/12/28 13:36:29;;;;;;;3.58;1.23;;;;;;;;;;5093034;28;20051;-71
2021/12/28 13:39:08;;;;;;;3.60;1.33;;;;;;;;;;5092479;28;20058;-71
2021/12/28 13:41:37;;;;;;;16.17;2.00;;;;;;;;;;5073435;28;20044;-72
2021/12/28 13:44:04;;;;;;;3.47;1.33;;;;;;;;;;5090147;28;20059;-72
2021/12/28 13:46:31;;;;;;;3.90;1.15;;;;;;;;;;5091615;28;20040;-73
2021/12/28 13:49:02;;;;;;;4.60;0.95;;;;;;;;;;5091749;28;20086;-73
2021/12/28 13:51:30;;;;;;;9.43;1.20;;;;;;;;;;5092523;28;20040;-73
2021/12/28 13:53:57;;;;;;;6.25;1.60;;;;;;;;;;5092524;28;20056;-73
2021/12/28 13:56:33;;;;;;;3.33;0.98;;;;;;;;;;5092462;28;20094;-73
2021/12/28 13:59:00;;;;;;;5.78;1.30;;;;;;;;;;5091097;28;20062;-72
2021/12/28 14:01:30;;;;;;;2.53;1.25;;;;;;;;;;5092076;28;20050;-72
2021/12/28 14:04:10;;;;;;;3.40;1.08;;;;;;;;;;5092191;28;20052;-71
2021/12/28 14:06:37;;;;;;;2.63;0.80;;;;;;;;;;5091715;28;20130;-72
2021/12/28 14:09:04;;;;;;;2.78;1.00;;;;;;;;;;5092298;28;20048;-71
2021/12/28 14:11:39;;;;;;;2.90;1.20;;;;;;;;;;5091703;28;20488;-72
2021/12/28 14:14:18;;;;;;;2.28;1.20;;;;;;;;;;5091771;28;20449;-72
2021/12/28 14:16:54;;;;;;;3.28;0.90;;;;;;;;;;5082101;28;20047;-72
2021/12/28 14:19:21;;;;;;;3.03;1.30;;;;;;;;;;5091742;28;20501;-72
2021/12/28 14:21:47;;;;;;;2.92;1.27;;;;;;;;;;5090453;28;20178;-74
2021/12/28 14:24:13;;;;;;;3.08;1.10;;;;;;;;;;5090342;28;20048;-75
2021/12/28 14:26:41;;;;;;;4.07;1.15;;;;;;;;;;5091557;28;20523;-74
2021/12/28 14:29:31;;;;;;;4.32;1.17;;;;;;;;;;5091650;28;20055;-73
2021/12/28 14:31:58;;;;;;;4.57;1.10;;;;;;;;;;5085303;28;20055;-75
2021/12/28 14:34:36;;;;;;;7.38;1.48;;;;;;;;;;5091035;28;20604;-72
2021/12/28 14:37:02;;;;;;;4.78;1.08;;;;;;;;;;5090166;28;20047;-72
2021/12/28 14:39:33;;;;;;;7.75;1.58;;;;;;;;;;5091374;28;20044;-72
2021/12/28 14:42:05;;;;;;;6.20;1.20;;;;;;;;;;5091175;28;20052;-71
2021/12/28 14:44:31;;;;;;;5.40;1.20;;;;;;;;;;5089952;28;20475;-71
2021/12/28 14:46:58;;;;;;;5.13;1.35;;;;;;;;;;5091392;28;20079;-71
2021/12/28 14:49:27;;;;;;;7.22;1.13;;;;;;;;;;5089702;28;20040;-72